sensor_id;sensor_type;location;lat;lon;timestamp;P1;durP1;ratioP1;P2;durP2;ratioP2
4428;SDS011;2227;47.810;8.810;2023-02-11T00:01:07;588.22;;;409.90;;
4428;SDS011;2227;47.810;8.810;2023-02-11T00:03:42;591.27;;;413.17;;
4428;SDS011;2227;47.810;8.810;2023-02-11T00:06:09;589.33;;;408.60;;
4428;SDS011;2227;47.810;8.810;2023-02-11T00:08:36;595.13;;;411.25;;
4428;SDS011;2227;47.810;8.810;2023-02-11T00:11:05;592.63;;;412.50;;
4428;SDS011;2227;47.810;8.810;2023-02-11T00:13:32;592.30;;;406.45;;
4428;SDS011;2227;47.810;8.810;2023-02-11T00:15:59;593.83;;;411.65;;
4428;SDS011;2227;47.810;8.810;2023-02-11T00:18:32;596.50;;;407.67;;
4428;SDS011;2227;47.810;8.810;2023-02-11T00:20:59;593.10;;;404.77;;
4428;SDS011;2227;47.810;8.810;2023-02-11T00:23:30;601.00;;;419.33;;
4428;SDS011;2227;47.810;8.810;2023-02-11T00:25:57;597.78;;;410.52;;
4428;SDS011;2227;47.810;8.810;2023-02-11T00:28:23;599.30;;;404.43;;
4428;SDS011;2227;47.810;8.810;2023-02-11T05:33:07;583.60;;;364.30;;
4428;SDS011;2227;47.810;8.810;2023-02-11T05:35:33;582.08;;;363.20;;
4428;SDS011;2227;47.810;8.810;2023-02-11T05:38:00;581.58;;;373.00;;
4428;SDS011;2227;47.810;8.810;2023-02-11T05:40:27;578.00;;;368.88;;
4428;SDS011;2227;47.810;8.810;2023-02-11T05:42:53;575.67;;;364.27;;
4428;SDS011;2227;47.810;8.810;2023-02-11T05:45:20;579.03;;;363.75;;
4428;SDS011;2227;47.810;8.810;2023-02-11T05:47:47;580.78;;;366.42;;
4428;SDS011;2227;47.810;8.810;2023-02-11T05:50:13;580.97;;;359.88;;
4428;SDS011;2227;47.810;8.810;2023-02-11T05:52:40;586.38;;;360.08;;
4428;SDS011;2227;47.810;8.810;2023-02-11T05:55:07;585.13;;;355.65;;
4428;SDS011;2227;47.810;8.810;2023-02-11T05:57:34;582.60;;;361.52;;
4428;SDS011;2227;47.810;8.810;2023-02-11T06:00:00;580.08;;;365.85;;
4428;SDS011;2227;47.810;8.810;2023-02-11T06:02:28;578.03;;;366.38;;
4428;SDS011;2227;47.810;8.810;2023-02-11T06:04:54;577.45;;;369.80;;
4428;SDS011;2227;47.810;8.810;2023-02-11T06:07:21;586.47;;;366.75;;
4428;SDS011;2227;47.810;8.810;2023-02-11T06:09:48;577.30;;;369.33;;
4428;SDS011;2227;47.810;8.810;2023-02-11T06:12:14;574.57;;;364.23;;
4428;SDS011;2227;47.810;8.810;2023-02-11T06:14:41;575.05;;;368.27;;
4428;SDS011;2227;47.810;8.810;2023-02-11T06:17:08;578.90;;;366.67;;
4428;SDS011;2227;47.810;8.810;2023-02-11T06:19:34;580.97;;;366.10;;
4428;SDS011;2227;47.810;8.810;2023-02-11T06:22:01;582.40;;;362.77;;
4428;SDS011;2227;47.810;8.810;2023-02-11T06:24:28;588.10;;;366.70;;
4428;SDS011;2227;47.810;8.810;2023-02-11T06:27:15;585.75;;;358.40;;
4428;SDS011;2227;47.810;8.810;2023-02-11T06:29:42;581.80;;;350.88;;
4428;SDS011;2227;47.810;8.810;2023-02-11T06:32:09;578.10;;;346.67;;
4428;SDS011;2227;47.810;8.810;2023-02-11T06:34:56;584.22;;;348.95;;
4428;SDS011;2227;47.810;8.810;2023-02-11T06:37:22;695.17;;;407.70;;
4428;SDS011;2227;47.810;8.810;2023-02-11T06:39:49;744.05;;;440.63;;
4428;SDS011;2227;47.810;8.810;2023-02-11T06:42:16;637.05;;;379.92;;
4428;SDS011;2227;47.810;8.810;2023-02-11T06:44:42;584.92;;;362.90;;
4428;SDS011;2227;47.810;8.810;2023-02-11T06:47:09;579.90;;;357.42;;
4428;SDS011;2227;47.810;8.810;2023-02-11T06:49:36;573.67;;;357.00;;
4428;SDS011;2227;47.810;8.810;2023-02-11T06:52:03;576.85;;;356.02;;
4428;SDS011;2227;47.810;8.810;2023-02-11T06:54:29;574.15;;;351.67;;
4428;SDS011;2227;47.810;8.810;2023-02-11T06:56:56;577.05;;;357.25;;
4428;SDS011;2227;47.810;8.810;2023-02-11T06:59:23;577.35;;;356.73;;
4428;SDS011;2227;47.810;8.810;2023-02-11T07:01:49;573.85;;;363.27;;
4428;SDS011;2227;47.810;8.810;2023-02-11T07:04:16;567.00;;;358.67;;
4428;SDS011;2227;47.810;8.810;2023-02-11T07:06:43;568.88;;;363.58;;
4428;SDS011;2227;47.810;8.810;2023-02-11T07:09:09;568.00;;;356.97;;
4428;SDS011;2227;47.810;8.810;2023-02-11T07:11:36;572.92;;;363.80;;
4428;SDS011;2227;47.810;8.810;2023-02-11T07:14:03;578.17;;;370.13;;
4428;SDS011;2227;47.810;8.810;2023-02-11T07:16:33;574.05;;;366.90;;
4428;SDS011;2227;47.810;8.810;2023-02-11T07:19:00;576.95;;;363.02;;
4428;SDS011;2227;47.810;8.810;2023-02-11T07:21:27;571.45;;;362.25;;
4428;SDS011;2227;47.810;8.810;2023-02-11T07:23:53;580.55;;;373.50;;
4428;SDS011;2227;47.810;8.810;2023-02-11T07:26:21;576.00;;;373.25;;
4428;SDS011;2227;47.810;8.810;2023-02-11T07:28:49;567.50;;;365.50;;
4428;SDS011;2227;47.810;8.810;2023-02-11T07:31:23;572.22;;;374.92;;
4428;SDS011;2227;47.810;8.810;2023-02-11T07:33:52;566.90;;;366.98;;
4428;SDS011;2227;47.810;8.810;2023-02-11T07:36:20;567.65;;;375.80;;
4428;SDS011;2227;47.810;8.810;2023-02-11T07:38:48;571.10;;;379.08;;
4428;SDS011;2227;47.810;8.810;2023-02-11T07:41:16;576.42;;;390.40;;
4428;SDS011;2227;47.810;8.810;2023-02-11T07:43:45;577.17;;;401.10;;
4428;SDS011;2227;47.810;8.810;2023-02-11T07:46:14;577.05;;;407.52;;
4428;SDS011;2227;47.810;8.810;2023-02-11T07:48:45;575.95;;;414.05;;
4428;SDS011;2227;47.810;8.810;2023-02-11T07:53:44;585.72;;;425.67;;
4428;SDS011;2227;47.810;8.810;2023-02-11T07:56:11;584.88;;;419.48;;
4428;SDS011;2227;47.810;8.810;2023-02-11T07:58:39;582.65;;;422.83;;
4428;SDS011;2227;47.810;8.810;2023-02-11T08:01:09;586.40;;;434.10;;
4428;SDS011;2227;47.810;8.810;2023-02-11T08:03:47;583.70;;;428.25;;
4428;SDS011;2227;47.810;8.810;2023-02-11T08:06:15;583.03;;;435.13;;
4428;SDS011;2227;47.810;8.810;2023-02-11T08:08:42;580.83;;;437.87;;
4428;SDS011;2227;47.810;8.810;2023-02-11T08:11:14;583.38;;;440.45;;
4428;SDS011;2227;47.810;8.810;2023-02-11T08:13:46;580.60;;;435.33;;
4428;SDS011;2227;47.810;8.810;2023-02-11T08:16:23;575.97;;;439.25;;
4428;SDS011;2227;47.810;8.810;2023-02-11T08:18:55;583.15;;;439.25;;
4428;SDS011;2227;47.810;8.810;2023-02-11T08:21:24;587.80;;;446.25;;
4428;SDS011;2227;47.810;8.810;2023-02-11T08:23:51;589.30;;;453.70;;
4428;SDS011;2227;47.810;8.810;2023-02-11T08:26:19;584.80;;;461.80;;
4428;SDS011;2227;47.810;8.810;2023-02-11T08:28:49;586.63;;;467.45;;
4428;SDS011;2227;47.810;8.810;2023-02-11T08:31:18;588.00;;;480.77;;
4428;SDS011;2227;47.810;8.810;2023-02-11T08:33:47;591.30;;;491.77;;
4428;SDS011;2227;47.810;8.810;2023-02-11T08:36:18;591.55;;;506.00;;
4428;SDS011;2227;47.810;8.810;2023-02-11T08:38:50;594.75;;;503.90;;
4428;SDS011;2227;47.810;8.810;2023-02-11T08:41:25;622.58;;;556.13;;
4428;SDS011;2227;47.810;8.810;2023-02-11T08:43:52;654.03;;;586.63;;
4428;SDS011;2227;47.810;8.810;2023-02-11T08:46:19;667.75;;;600.33;;
4428;SDS011;2227;47.810;8.810;2023-02-11T08:48:46;685.10;;;617.75;;
4428;SDS011;2227;47.810;8.810;2023-02-11T08:51:16;696.33;;;628.63;;
4428;SDS011;2227;47.810;8.810;2023-02-11T08:53:45;702.65;;;634.78;;
4428;SDS011;2227;47.810;8.810;2023-02-11T08:56:17;701.10;;;633.60;;
4428;SDS011;2227;47.810;8.810;2023-02-11T08:58:45;687.33;;;619.80;;
4428;SDS011;2227;47.810;8.810;2023-02-11T09:01:14;683.33;;;616.15;;
4428;SDS011;2227;47.810;8.810;2023-02-11T09:03:48;694.53;;;627.47;;
4428;SDS011;2227;47.810;8.810;2023-02-11T09:06:15;684.85;;;616.97;;
4428;SDS011;2227;47.810;8.810;2023-02-11T09:08:44;674.38;;;606.78;;
4428;SDS011;2227;47.810;8.810;2023-02-11T09:11:14;665.08;;;597.58;;
4428;SDS011;2227;47.810;8.810;2023-02-11T09:13:43;661.55;;;593.65;;
4428;SDS011;2227;47.810;8.810;2023-02-11T09:16:15;656.00;;;588.20;;
4428;SDS011;2227;47.810;8.810;2023-02-11T09:18:47;656.58;;;588.58;;
4428;SDS011;2227;47.810;8.810;2023-02-11T09:21:15;649.88;;;581.83;;
4428;SDS011;2227;47.810;8.810;2023-02-11T09:23:42;649.13;;;581.40;;
4428;SDS011;2227;47.810;8.810;2023-02-11T09:26:12;651.60;;;583.97;;
4428;SDS011;2227;47.810;8.810;2023-02-11T09:28:46;654.90;;;587.13;;
4428;SDS011;2227;47.810;8.810;2023-02-11T09:31:15;663.60;;;595.53;;
4428;SDS011;2227;47.810;8.810;2023-02-11T09:33:44;662.33;;;593.92;;
4428;SDS011;2227;47.810;8.810;2023-02-11T09:36:16;675.03;;;606.37;;
4428;SDS011;2227;47.810;8.810;2023-02-11T09:38:44;704.63;;;635.13;;
4428;SDS011;2227;47.810;8.810;2023-02-11T09:41:19;767.63;;;698.90;;
4428;SDS011;2227;47.810;8.810;2023-02-11T09:43:55;830.03;;;763.63;;
4428;SDS011;2227;47.810;8.810;2023-02-11T09:46:24;906.83;;;839.10;;
4428;SDS011;2227;47.810;8.810;2023-02-11T09:48:56;933.22;;;864.92;;
4428;SDS011;2227;47.810;8.810;2023-02-11T09:51:44;969.47;;;899.13;;
4428;SDS011;2227;47.810;8.810;2023-02-11T09:57:17;1005.00;;;931.22;;
4428;SDS011;2227;47.810;8.810;2023-02-11T09:59:54;1013.33;;;940.33;;
4428;SDS011;2227;47.810;8.810;2023-02-11T10:05:06;1036.10;;;964.83;;
4428;SDS011;2227;47.810;8.810;2023-02-11T10:10:25;1045.97;;;981.72;;
4428;SDS011;2227;47.810;8.810;2023-02-11T10:18:09;1047.40;;;982.40;;
4428;SDS011;2227;47.810;8.810;2023-02-11T10:21:15;1017.40;;;951.90;;
4428;SDS011;2227;47.810;8.810;2023-02-11T10:23:54;1004.33;;;937.23;;
4428;SDS011;2227;47.810;8.810;2023-02-11T10:26:25;974.95;;;905.47;;
4428;SDS011;2227;47.810;8.810;2023-02-11T10:28:54;938.72;;;870.25;;
4428;SDS011;2227;47.810;8.810;2023-02-11T10:31:26;936.50;;;868.00;;
4428;SDS011;2227;47.810;8.810;2023-02-11T10:34:05;916.20;;;844.47;;
4428;SDS011;2227;47.810;8.810;2023-02-11T10:36:35;900.90;;;830.40;;
4428;SDS011;2227;47.810;8.810;2023-02-11T10:41:45;895.80;;;826.27;;
4428;SDS011;2227;47.810;8.810;2023-02-11T10:44:36;911.47;;;841.80;;
4428;SDS011;2227;47.810;8.810;2023-02-11T10:47:14;910.92;;;841.33;;
4428;SDS011;2227;47.810;8.810;2023-02-11T10:49:45;915.85;;;846.05;;
4428;SDS011;2227;47.810;8.810;2023-02-11T10:57:40;929.60;;;859.50;;
4428;SDS011;2227;47.810;8.810;2023-02-11T11:00:37;932.80;;;862.75;;
4428;SDS011;2227;47.810;8.810;2023-02-11T11:03:18;939.13;;;869.33;;
4428;SDS011;2227;47.810;8.810;2023-02-11T11:05:49;949.65;;;879.08;;
4428;SDS011;2227;47.810;8.810;2023-02-11T11:11:23;976.67;;;909.10;;
4428;SDS011;2227;47.810;8.810;2023-02-11T11:21:38;1044.53;;;981.43;;
4428;SDS011;2227;47.810;8.810;2023-02-11T11:24:22;1071.20;;;999.90;;
4428;SDS011;2227;47.810;8.810;2023-02-11T11:26:59;1073.90;;;999.90;;
4428;SDS011;2227;47.810;8.810;2023-02-11T11:29:33;1073.47;;;999.90;;
4428;SDS011;2227;47.810;8.810;2023-02-11T11:35:01;1043.70;;;982.42;;
4428;SDS011;2227;47.810;8.810;2023-02-11T11:37:32;1044.00;;;982.20;;
4428;SDS011;2227;47.810;8.810;2023-02-11T11:40:02;1035.72;;;975.05;;
4428;SDS011;2227;47.810;8.810;2023-02-11T11:42:36;1045.07;;;983.65;;
4428;SDS011;2227;47.810;8.810;2023-02-11T11:47:50;1049.20;;;987.63;;
4428;SDS011;2227;47.810;8.810;2023-02-11T11:53:59;1064.90;;;999.90;;
4428;SDS011;2227;47.810;8.810;2023-02-11T11:56:29;1071.05;;;999.90;;
4428;SDS011;2227;47.810;8.810;2023-02-11T11:58:59;1075.43;;;999.90;;
4428;SDS011;2227;47.810;8.810;2023-02-11T12:09:42;1062.93;;;999.90;;
4428;SDS011;2227;47.810;8.810;2023-02-11T12:24:14;1055.95;;;995.15;;
4428;SDS011;2227;47.810;8.810;2023-02-11T12:27:11;1042.00;;;979.70;;
4428;SDS011;2227;47.810;8.810;2023-02-11T12:32:29;1005.22;;;942.72;;
4428;SDS011;2227;47.810;8.810;2023-02-11T12:35:24;1000.25;;;937.45;;
4428;SDS011;2227;47.810;8.810;2023-02-11T12:40:45;995.43;;;931.77;;
4428;SDS011;2227;47.810;8.810;2023-02-11T12:43:33;987.70;;;924.05;;
4428;SDS011;2227;47.810;8.810;2023-02-11T12:48:45;959.57;;;894.93;;
4428;SDS011;2227;47.810;8.810;2023-02-11T12:56:36;932.97;;;867.87;;
4428;SDS011;2227;47.810;8.810;2023-02-11T12:59:21;929.35;;;865.00;;
4428;SDS011;2227;47.810;8.810;2023-02-11T13:05:26;923.72;;;859.72;;
4428;SDS011;2227;47.810;8.810;2023-02-11T13:08:01;923.87;;;859.97;;
4428;SDS011;2227;47.810;8.810;2023-02-11T13:10:35;930.55;;;866.45;;
4428;SDS011;2227;47.810;8.810;2023-02-11T13:13:11;929.00;;;864.88;;
4428;SDS011;2227;47.810;8.810;2023-02-11T13:15:45;927.45;;;863.50;;
4428;SDS011;2227;47.810;8.810;2023-02-11T13:21:45;927.35;;;863.60;;
4428;SDS011;2227;47.810;8.810;2023-02-11T13:24:25;940.83;;;877.05;;
4428;SDS011;2227;47.810;8.810;2023-02-11T13:26:57;944.03;;;879.92;;
4428;SDS011;2227;47.810;8.810;2023-02-11T13:38:17;924.60;;;860.80;;
4428;SDS011;2227;47.810;8.810;2023-02-11T13:43:41;937.55;;;873.85;;
4428;SDS011;2227;47.810;8.810;2023-02-11T13:46:12;938.10;;;874.83;;
4428;SDS011;2227;47.810;8.810;2023-02-11T13:48:50;936.95;;;872.63;;
4428;SDS011;2227;47.810;8.810;2023-02-11T13:54:05;926.33;;;861.97;;
4428;SDS011;2227;47.810;8.810;2023-02-11T13:59:42;931.15;;;867.35;;
4428;SDS011;2227;47.810;8.810;2023-02-11T14:05:15;931.83;;;868.85;;
4428;SDS011;2227;47.810;8.810;2023-02-11T14:10:58;933.50;;;870.83;;
4428;SDS011;2227;47.810;8.810;2023-02-11T14:16:19;931.15;;;867.90;;
4428;SDS011;2227;47.810;8.810;2023-02-11T14:19:02;927.57;;;864.57;;
4428;SDS011;2227;47.810;8.810;2023-02-11T14:21:30;949.50;;;885.47;;
4428;SDS011;2227;47.810;8.810;2023-02-11T14:29:44;957.80;;;894.85;;
4428;SDS011;2227;47.810;8.810;2023-02-11T14:32:46;950.10;;;887.38;;
4428;SDS011;2227;47.810;8.810;2023-02-11T14:43:23;925.42;;;862.05;;
4428;SDS011;2227;47.810;8.810;2023-02-11T14:45:55;920.43;;;856.53;;
4428;SDS011;2227;47.810;8.810;2023-02-11T14:48:26;924.75;;;859.70;;
4428;SDS011;2227;47.810;8.810;2023-02-11T14:51:01;919.00;;;853.67;;
4428;SDS011;2227;47.810;8.810;2023-02-11T14:53:30;911.97;;;846.05;;
4428;SDS011;2227;47.810;8.810;2023-02-11T14:55:58;898.47;;;832.67;;
4428;SDS011;2227;47.810;8.810;2023-02-11T14:58:26;903.90;;;838.10;;
4428;SDS011;2227;47.810;8.810;2023-02-11T15:00:54;896.47;;;830.63;;
4428;SDS011;2227;47.810;8.810;2023-02-11T15:03:40;898.75;;;832.85;;
4428;SDS011;2227;47.810;8.810;2023-02-11T15:09:12;904.83;;;839.47;;
4428;SDS011;2227;47.810;8.810;2023-02-11T15:11:42;888.97;;;823.45;;
4428;SDS011;2227;47.810;8.810;2023-02-11T15:14:18;887.47;;;822.13;;
4428;SDS011;2227;47.810;8.810;2023-02-11T15:16:59;881.90;;;816.72;;
4428;SDS011;2227;47.810;8.810;2023-02-11T15:19:29;869.00;;;804.60;;
4428;SDS011;2227;47.810;8.810;2023-02-11T15:22:01;872.63;;;808.30;;
4428;SDS011;2227;47.810;8.810;2023-02-11T15:24:32;860.67;;;795.95;;
4428;SDS011;2227;47.810;8.810;2023-02-11T15:27:01;857.67;;;792.72;;
4428;SDS011;2227;47.810;8.810;2023-02-11T15:29:43;850.73;;;785.63;;
4428;SDS011;2227;47.810;8.810;2023-02-11T15:32:15;846.35;;;781.03;;
4428;SDS011;2227;47.810;8.810;2023-02-11T15:34:44;845.47;;;779.67;;
4428;SDS011;2227;47.810;8.810;2023-02-11T15:37:13;840.45;;;775.55;;
4428;SDS011;2227;47.810;8.810;2023-02-11T15:39:44;826.72;;;761.63;;
4428;SDS011;2227;47.810;8.810;2023-02-11T15:42:14;819.70;;;754.20;;
4428;SDS011;2227;47.810;8.810;2023-02-11T15:44:44;810.88;;;745.55;;
4428;SDS011;2227;47.810;8.810;2023-02-11T15:47:21;816.55;;;751.25;;
4428;SDS011;2227;47.810;8.810;2023-02-11T15:49:54;808.67;;;743.22;;
4428;SDS011;2227;47.810;8.810;2023-02-11T15:52:22;806.20;;;741.08;;
4428;SDS011;2227;47.810;8.810;2023-02-11T15:54:51;809.78;;;744.38;;
4428;SDS011;2227;47.810;8.810;2023-02-11T15:57:21;793.88;;;728.55;;
4428;SDS011;2227;47.810;8.810;2023-02-11T15:59:49;796.97;;;731.38;;
4428;SDS011;2227;47.810;8.810;2023-02-11T16:02:19;794.03;;;728.70;;
4428;SDS011;2227;47.810;8.810;2023-02-11T16:04:56;799.63;;;733.42;;
4428;SDS011;2227;47.810;8.810;2023-02-11T16:12:51;789.50;;;721.72;;
4428;SDS011;2227;47.810;8.810;2023-02-11T16:18:02;787.55;;;720.72;;
4428;SDS011;2227;47.810;8.810;2023-02-11T16:20:37;779.57;;;711.93;;
4428;SDS011;2227;47.810;8.810;2023-02-11T16:23:05;756.75;;;690.00;;
4428;SDS011;2227;47.810;8.810;2023-02-11T16:25:36;769.60;;;702.17;;
4428;SDS011;2227;47.810;8.810;2023-02-11T16:28:03;746.38;;;679.17;;
4428;SDS011;2227;47.810;8.810;2023-02-11T16:30:32;748.03;;;680.78;;
4428;SDS011;2227;47.810;8.810;2023-02-11T16:33:01;738.30;;;671.67;;
4428;SDS011;2227;47.810;8.810;2023-02-11T16:35:29;736.13;;;669.35;;
4428;SDS011;2227;47.810;8.810;2023-02-11T16:37:56;731.70;;;664.92;;
4428;SDS011;2227;47.810;8.810;2023-02-11T16:40:22;727.63;;;660.08;;
4428;SDS011;2227;47.810;8.810;2023-02-11T16:42:49;723.38;;;656.33;;
4428;SDS011;2227;47.810;8.810;2023-02-11T16:45:18;730.08;;;663.03;;
4428;SDS011;2227;47.810;8.810;2023-02-11T16:47:44;725.35;;;658.58;;
4428;SDS011;2227;47.810;8.810;2023-02-11T16:50:18;718.00;;;650.85;;
4428;SDS011;2227;47.810;8.810;2023-02-11T16:52:47;720.72;;;653.53;;
4428;SDS011;2227;47.810;8.810;2023-02-11T16:55:14;718.17;;;651.33;;
4428;SDS011;2227;47.810;8.810;2023-02-11T16:57:41;712.08;;;645.30;;
4428;SDS011;2227;47.810;8.810;2023-02-11T17:00:07;724.97;;;657.65;;
4428;SDS011;2227;47.810;8.810;2023-02-11T17:02:35;716.67;;;649.90;;
4428;SDS011;2227;47.810;8.810;2023-02-11T17:05:04;715.38;;;647.45;;
4428;SDS011;2227;47.810;8.810;2023-02-11T17:07:32;718.08;;;650.65;;
4428;SDS011;2227;47.810;8.810;2023-02-11T17:09:59;718.07;;;650.47;;
4428;SDS011;2227;47.810;8.810;2023-02-11T17:12:26;707.60;;;640.40;;
4428;SDS011;2227;47.810;8.810;2023-02-11T17:14:53;706.00;;;638.55;;
4428;SDS011;2227;47.810;8.810;2023-02-11T17:17:20;701.40;;;634.08;;
4428;SDS011;2227;47.810;8.810;2023-02-11T17:19:48;693.25;;;626.35;;
4428;SDS011;2227;47.810;8.810;2023-02-11T17:22:16;709.88;;;642.25;;
4428;SDS011;2227;47.810;8.810;2023-02-11T17:24:43;695.50;;;628.83;;
4428;SDS011;2227;47.810;8.810;2023-02-11T17:27:10;702.65;;;635.15;;
4428;SDS011;2227;47.810;8.810;2023-02-11T17:29:38;690.55;;;624.25;;
4428;SDS011;2227;47.810;8.810;2023-02-11T17:32:05;687.80;;;621.40;;
4428;SDS011;2227;47.810;8.810;2023-02-11T17:34:32;684.65;;;619.05;;
4428;SDS011;2227;47.810;8.810;2023-02-11T17:36:59;688.60;;;622.65;;
4428;SDS011;2227;47.810;8.810;2023-02-11T17:39:28;672.88;;;607.72;;
4428;SDS011;2227;47.810;8.810;2023-02-11T17:41:54;669.15;;;603.45;;
4428;SDS011;2227;47.810;8.810;2023-02-11T17:44:21;661.00;;;595.25;;
4428;SDS011;2227;47.810;8.810;2023-02-11T17:46:48;664.28;;;596.53;;
4428;SDS011;2227;47.810;8.810;2023-02-11T17:49:15;659.00;;;591.30;;
4428;SDS011;2227;47.810;8.810;2023-02-11T17:51:41;651.57;;;583.60;;
4428;SDS011;2227;47.810;8.810;2023-02-11T17:54:10;665.13;;;597.13;;
4428;SDS011;2227;47.810;8.810;2023-02-11T17:56:39;661.08;;;593.40;;
4428;SDS011;2227;47.810;8.810;2023-02-11T17:59:07;662.17;;;595.17;;
4428;SDS011;2227;47.810;8.810;2023-02-11T18:01:35;669.28;;;601.50;;
4428;SDS011;2227;47.810;8.810;2023-02-11T18:04:03;654.70;;;585.70;;
4428;SDS011;2227;47.810;8.810;2023-02-11T18:06:30;661.50;;;592.10;;
4428;SDS011;2227;47.810;8.810;2023-02-11T18:08:59;663.30;;;594.17;;
4428;SDS011;2227;47.810;8.810;2023-02-11T18:11:27;658.85;;;589.95;;
4428;SDS011;2227;47.810;8.810;2023-02-11T18:13:59;651.63;;;582.35;;
4428;SDS011;2227;47.810;8.810;2023-02-11T18:16:27;648.03;;;579.00;;
4428;SDS011;2227;47.810;8.810;2023-02-11T18:18:56;640.42;;;571.13;;
4428;SDS011;2227;47.810;8.810;2023-02-11T18:21:24;653.00;;;583.27;;
4428;SDS011;2227;47.810;8.810;2023-02-11T18:23:51;642.72;;;573.15;;
4428;SDS011;2227;47.810;8.810;2023-02-11T18:26:18;635.08;;;566.05;;
4428;SDS011;2227;47.810;8.810;2023-02-11T18:28:46;639.85;;;571.15;;
4428;SDS011;2227;47.810;8.810;2023-02-11T18:31:14;635.65;;;566.95;;
4428;SDS011;2227;47.810;8.810;2023-02-11T18:33:42;633.28;;;564.22;;
4428;SDS011;2227;47.810;8.810;2023-02-11T18:36:11;643.75;;;575.13;;
4428;SDS011;2227;47.810;8.810;2023-02-11T18:38:39;627.42;;;558.90;;
4428;SDS011;2227;47.810;8.810;2023-02-11T18:41:07;628.67;;;560.47;;
4428;SDS011;2227;47.810;8.810;2023-02-11T18:43:34;628.47;;;559.88;;
4428;SDS011;2227;47.810;8.810;2023-02-11T18:46:05;640.08;;;557.08;;
4428;SDS011;2227;47.810;8.810;2023-02-11T18:48:33;631.08;;;551.38;;
4428;SDS011;2227;47.810;8.810;2023-02-11T18:51:00;643.25;;;558.22;;
4428;SDS011;2227;47.810;8.810;2023-02-11T18:53:27;630.05;;;545.47;;
4428;SDS011;2227;47.810;8.810;2023-02-11T18:55:54;627.63;;;543.67;;
4428;SDS011;2227;47.810;8.810;2023-02-11T18:58:20;629.80;;;550.45;;
4428;SDS011;2227;47.810;8.810;2023-02-11T19:00:48;623.22;;;541.40;;
4428;SDS011;2227;47.810;8.810;2023-02-11T19:03:15;626.10;;;548.00;;
4428;SDS011;2227;47.810;8.810;2023-02-11T19:05:44;628.03;;;537.95;;
4428;SDS011;2227;47.810;8.810;2023-02-11T19:08:12;617.63;;;541.60;;
4428;SDS011;2227;47.810;8.810;2023-02-11T19:10:40;622.20;;;537.00;;
4428;SDS011;2227;47.810;8.810;2023-02-11T19:13:08;622.10;;;537.20;;
4428;SDS011;2227;47.810;8.810;2023-02-11T19:15:39;621.88;;;539.40;;
4428;SDS011;2227;47.810;8.810;2023-02-11T19:18:07;621.88;;;530.47;;
4428;SDS011;2227;47.810;8.810;2023-02-11T19:20:34;622.97;;;529.53;;
4428;SDS011;2227;47.810;8.810;2023-02-11T19:23:00;620.13;;;529.28;;
4428;SDS011;2227;47.810;8.810;2023-02-11T19:25:27;625.03;;;527.63;;
4428;SDS011;2227;47.810;8.810;2023-02-11T19:27:54;628.13;;;526.90;;
4428;SDS011;2227;47.810;8.810;2023-02-11T19:30:21;619.50;;;526.47;;
4428;SDS011;2227;47.810;8.810;2023-02-11T19:32:47;615.78;;;523.95;;
4428;SDS011;2227;47.810;8.810;2023-02-11T19:35:18;615.35;;;518.00;;
4428;SDS011;2227;47.810;8.810;2023-02-11T19:37:45;624.30;;;525.37;;
4428;SDS011;2227;47.810;8.810;2023-02-11T19:40:12;622.30;;;519.35;;
4428;SDS011;2227;47.810;8.810;2023-02-11T19:42:40;618.60;;;516.58;;
4428;SDS011;2227;47.810;8.810;2023-02-11T19:45:07;620.75;;;514.67;;
4428;SDS011;2227;47.810;8.810;2023-02-11T19:47:35;624.22;;;515.63;;
4428;SDS011;2227;47.810;8.810;2023-02-11T19:50:03;626.63;;;519.10;;
4428;SDS011;2227;47.810;8.810;2023-02-11T19:52:30;622.45;;;519.30;;
4428;SDS011;2227;47.810;8.810;2023-02-11T19:54:59;623.90;;;511.17;;
4428;SDS011;2227;47.810;8.810;2023-02-11T19:57:25;624.88;;;515.78;;
4428;SDS011;2227;47.810;8.810;2023-02-11T19:59:52;618.20;;;513.53;;
4428;SDS011;2227;47.810;8.810;2023-02-11T20:02:20;619.50;;;513.22;;
4428;SDS011;2227;47.810;8.810;2023-02-11T20:04:47;619.88;;;515.33;;
4428;SDS011;2227;47.810;8.810;2023-02-11T20:07:14;623.30;;;512.78;;
4428;SDS011;2227;47.810;8.810;2023-02-11T20:09:40;615.58;;;510.58;;
4428;SDS011;2227;47.810;8.810;2023-02-11T20:12:07;613.00;;;511.43;;
4428;SDS011;2227;47.810;8.810;2023-02-11T20:14:34;614.83;;;509.73;;
4428;SDS011;2227;47.810;8.810;2023-02-11T20:17:01;614.67;;;512.47;;
4428;SDS011;2227;47.810;8.810;2023-02-11T20:19:28;619.67;;;502.00;;
4428;SDS011;2227;47.810;8.810;2023-02-11T20:21:55;615.72;;;505.67;;
4428;SDS011;2227;47.810;8.810;2023-02-11T20:24:22;614.88;;;508.05;;
4428;SDS011;2227;47.810;8.810;2023-02-11T20:26:50;611.53;;;501.63;;
4428;SDS011;2227;47.810;8.810;2023-02-11T20:29:21;619.00;;;520.25;;
4428;SDS011;2227;47.810;8.810;2023-02-11T20:31:48;617.50;;;509.45;;
4428;SDS011;2227;47.810;8.810;2023-02-11T20:34:15;619.15;;;513.25;;
4428;SDS011;2227;47.810;8.810;2023-02-11T20:36:43;618.85;;;509.67;;
4428;SDS011;2227;47.810;8.810;2023-02-11T20:39:17;616.70;;;502.00;;
4428;SDS011;2227;47.810;8.810;2023-02-11T20:41:44;612.28;;;505.25;;
4428;SDS011;2227;47.810;8.810;2023-02-11T20:44:11;611.05;;;502.48;;
4428;SDS011;2227;47.810;8.810;2023-02-11T20:46:39;605.22;;;500.38;;
4428;SDS011;2227;47.810;8.810;2023-02-11T20:49:11;608.42;;;496.05;;
4428;SDS011;2227;47.810;8.810;2023-02-11T20:51:44;616.92;;;505.48;;
4428;SDS011;2227;47.810;8.810;2023-02-11T20:54:15;608.28;;;496.38;;
4428;SDS011;2227;47.810;8.810;2023-02-11T20:59:13;614.33;;;494.15;;
4428;SDS011;2227;47.810;8.810;2023-02-11T21:01:42;615.63;;;501.00;;
4428;SDS011;2227;47.810;8.810;2023-02-11T21:04:14;614.92;;;495.50;;
4428;SDS011;2227;47.810;8.810;2023-02-11T21:06:47;614.40;;;502.50;;
4428;SDS011;2227;47.810;8.810;2023-02-11T21:09:16;610.63;;;500.58;;
4428;SDS011;2227;47.810;8.810;2023-02-11T21:11:47;614.15;;;498.83;;
4428;SDS011;2227;47.810;8.810;2023-02-11T21:14:16;611.65;;;496.48;;
4428;SDS011;2227;47.810;8.810;2023-02-11T21:16:44;609.03;;;492.87;;
4428;SDS011;2227;47.810;8.810;2023-02-11T21:19:12;610.17;;;495.10;;
4428;SDS011;2227;47.810;8.810;2023-02-11T21:21:39;608.20;;;485.02;;
4428;SDS011;2227;47.810;8.810;2023-02-11T21:24:06;602.87;;;488.13;;
4428;SDS011;2227;47.810;8.810;2023-02-11T21:26:34;601.53;;;492.05;;
4428;SDS011;2227;47.810;8.810;2023-02-11T21:29:02;605.88;;;494.23;;
4428;SDS011;2227;47.810;8.810;2023-02-11T21:31:32;602.87;;;492.40;;
4428;SDS011;2227;47.810;8.810;2023-02-11T21:34:00;605.45;;;490.98;;
4428;SDS011;2227;47.810;8.810;2023-02-11T21:36:27;604.30;;;490.00;;
4428;SDS011;2227;47.810;8.810;2023-02-11T21:38:54;604.63;;;486.33;;
4428;SDS011;2227;47.810;8.810;2023-02-11T21:41:21;607.00;;;485.92;;
4428;SDS011;2227;47.810;8.810;2023-02-11T21:43:50;605.78;;;482.40;;
4428;SDS011;2227;47.810;8.810;2023-02-11T21:46:17;604.20;;;477.40;;
4428;SDS011;2227;47.810;8.810;2023-02-11T21:48:44;604.13;;;483.67;;
4428;SDS011;2227;47.810;8.810;2023-02-11T21:51:12;604.00;;;476.83;;
4428;SDS011;2227;47.810;8.810;2023-02-11T21:53:43;601.75;;;478.58;;
4428;SDS011;2227;47.810;8.810;2023-02-11T21:56:12;603.67;;;473.33;;
4428;SDS011;2227;47.810;8.810;2023-02-11T21:58:40;601.70;;;470.63;;